Time;durP1;ratioP1;P1;durP2;ratioP2;P2;SDS_P1;SDS_P2;PMS_P1;PMS_P2;Temp;Humidity;BMP_temperature;BMP_pressure;BME280_temperature;BME280_humidity;BME280_pressure;Samples;Min_cycle;Max_cycle;Signal;HPM_P1;HPM_P2
2022/04/30 00:02:07;;;;;;;2.40;1.70;;;;;;;7.86;nan;101759.06;4910419;29;20115;-78
2022/04/30 00:04:36;;;;;;;3.57;1.70;;;;;;;7.79;nan;101751.13;4905591;29;20111;-78
2022/04/30 00:07:03;;;;;;;2.83;1.63;;;;;;;7.72;nan;101754.56;4909257;29;20054;-77
2022/04/30 00:09:31;;;;;;;3.87;2.13;;;;;;;7.63;nan;101745.72;4917062;29;20050;-78
2022/04/30 00:11:59;;;;;;;5.10;1.70;;;;;;;7.58;nan;101744.81;4907050;29;20140;-77
2022/04/30 00:14:27;;;;;;;2.40;1.90;;;;;;;7.59;nan;101746.56;4916784;29;20054;-79
2022/04/30 00:16:54;;;;;;;4.90;2.00;;;;;;;7.49;nan;101744.72;4932050;29;20126;-79
2022/04/30 00:19:22;;;;;;;4.83;1.97;;;;;;;7.47;nan;101743.81;4940633;29;20092;-77
2022/04/30 00:21:50;;;;;;;3.43;1.97;;;;;;;7.47;nan;101742.94;4940875;28;20106;-78
2022/04/30 00:24:17;;;;;;;5.40;2.30;;;;;;;7.30;nan;101743.63;4955165;28;20111;-77
2022/04/30 00:26:44;;;;;;;4.13;2.00;;;;;;;7.22;nan;101741.81;4951561;29;20118;-79
2022/04/30 00:29:11;;;;;;;4.23;2.20;;;;;;;7.21;nan;101746.19;4956262;28;20108;-77
2022/04/30 00:31:39;;;;;;;3.77;1.90;;;;;;;7.10;nan;101741.69;4940617;28;20106;-78
2022/04/30 00:34:06;;;;;;;3.13;2.00;;;;;;;7.00;nan;101741.59;4941758;28;20124;-78
2022/04/30 00:36:34;;;;;;;3.50;1.50;;;;;;;6.93;nan;101744.13;4937175;29;20111;-77
2022/04/30 00:39:04;;;;;;;3.00;1.80;;;;;;;6.78;nan;101747.44;4955624;28;20096;-77
2022/04/30 00:41:32;;;;;;;3.63;2.00;;;;;;;6.73;nan;101744.75;4920265;29;20492;-77
2022/04/30 00:44:00;;;;;;;3.10;2.00;;;;;;;6.65;nan;101735.91;4927037;29;20131;-78
2022/04/30 00:46:27;;;;;;;5.40;1.97;;;;;;;6.64;nan;101736.78;4932033;29;20111;-80
2022/04/30 00:48:57;;;;;;;4.13;2.23;;;;;;;6.64;nan;101743.75;4937197;28;20035;-77
2022/04/30 00:51:27;;;;;;;3.33;2.00;;;;;;;6.54;nan;101737.50;4934173;29;20042;-79
2022/04/30 00:53:55;;;;;;;5.13;2.30;;;;;;;6.40;nan;101741.69;4922894;29;20054;-78
2022/04/30 00:56:44;;;;;;;2.77;1.67;;;;;;;6.26;nan;101745.84;4935949;29;20043;-82
2022/04/30 00:59:17;;;;;;;2.77;1.60;;;;;;;6.18;nan;101740.50;4939887;29;20504;-78
2022/04/30 01:01:46;;;;;;;3.80;1.80;;;;;;;6.34;nan;101741.59;4940763;29;20369;-79
2022/04/30 01:04:18;;;;;;;3.43;2.40;;;;;;;6.44;nan;101746.13;4917639;29;20040;-79
2022/04/30 01:06:51;;;;;;;5.00;2.20;;;;;;;6.30;nan;101745.03;4931443;29;20040;-80
2022/04/30 01:09:21;;;;;;;4.87;2.20;;;;;;;6.10;nan;101745.63;4929107;29;20115;-79
2022/04/30 01:11:49;;;;;;;3.23;2.23;;;;;;;6.03;nan;101751.63;4938734;29;20119;-82
2022/04/30 01:14:17;;;;;;;3.17;1.80;;;;;;;6.06;nan;101745.56;4937075;28;20044;-80
2022/04/30 01:16:45;;;;;;;5.17;2.17;;;;;;;6.06;nan;101745.56;4934701;29;20046;-80
2022/04/30 01:19:20;;;;;;;3.10;2.03;;;;;;;6.06;nan;101735.06;4930137;29;20050;-80
2022/04/30 01:21:50;;;;;;;3.87;2.20;;;;;;;5.96;nan;101734.03;4932252;29;20054;-80
2022/04/30 01:24:20;;;;;;;5.23;2.00;;;;;;;5.87;nan;101737.34;4936393;28;20524;-80
2022/04/30 01:26:51;;;;;;;3.67;1.90;;;;;;;5.82;nan;101730.28;4950963;28;20053;-79
2022/04/30 01:29:20;;;;;;;3.53;1.80;;;;;;;5.84;nan;101739.06;4938511;28;20038;-82
2022/04/30 01:37:26;;;;;;;3.53;2.13;;;;;;;5.67;nan;101740.53;4936437;29;20465;-81
2022/04/30 01:40:03;;;;;;;3.87;2.20;;;;;;;5.64;nan;101738.75;4947775;28;20104;-83
2022/04/30 01:42:32;;;;;;;4.90;1.90;;;;;;;5.62;nan;101736.06;4976801;23;20047;-82
2022/04/30 01:44:58;;;;;;;4.97;2.10;;;;;;;5.69;nan;101725.69;4967579;28;20085;-81
2022/04/30 01:47:26;;;;;;;3.70;2.00;;;;;;;5.79;nan;101722.34;4964968;28;20051;-81
2022/04/30 01:49:52;;;;;;;5.13;2.03;;;;;;;5.82;nan;101720.69;4927189;29;20046;-81
2022/04/30 01:52:19;;;;;;;3.03;2.00;;;;;;;5.58;nan;101730.75;4952087;28;20051;-82
2022/04/30 01:54:46;;;;;;;6.70;2.83;;;;;;;5.51;nan;101732.41;4977525;28;20064;-81
2022/04/30 01:57:21;;;;;;;5.13;1.97;;;;;;;5.52;nan;101723.66;4949768;28;20050;-81
2022/04/30 01:59:49;;;;;;;4.05;2.00;;;;;;;5.53;nan;101725.44;4981975;28;20035;-81
2022/04/30 02:02:22;;;;;;;4.73;1.80;;;;;;;5.34;nan;101719.00;4959441;28;20405;-80
2022/04/30 02:04:51;;;;;;;4.67;2.03;;;;;;;5.54;nan;101716.72;4958976;28;20048;-81
2022/04/30 02:07:19;;;;;;;5.53;2.10;;;;;;;5.38;nan;101717.28;4952785;28;20038;-82
2022/04/30 02:09:51;;;;;;;3.83;2.13;;;;;;;5.26;nan;101717.09;4956552;28;20042;-81
2022/04/30 02:12:18;;;;;;;5.90;2.40;;;;;;;5.45;nan;101710.44;4943083;28;20039;-81
2022/04/30 02:14:52;;;;;;;5.40;2.00;;;;;;;5.24;nan;101714.44;4946021;28;20049;-82
2022/04/30 02:17:20;;;;;;;3.33;2.10;;;;;;;5.32;nan;101710.22;4958866;28;20039;-79
2022/04/30 02:22:38;;;;;;;6.97;2.40;;;;;;;5.24;nan;101709.22;4984712;28;20507;-82
2022/04/30 02:25:09;;;;;;;5.47;2.53;;;;;;;5.11;nan;101698.47;4964234;28;20048;-82
2022/04/30 02:27:42;;;;;;;2.87;1.97;;;;;;;5.04;nan;101714.09;4957417;28;20504;-82
2022/04/30 02:30:20;;;;;;;5.83;2.77;;;;;;;5.05;nan;101701.88;4955240;28;20045;-81
2022/04/30 02:32:53;;;;;;;6.90;2.60;;;;;;;5.17;nan;101703.81;4960025;28;20049;-81
2022/04/30 02:35:24;;;;;;;3.25;2.22;;;;;;;5.05;nan;101700.13;4989361;28;20121;-81
2022/04/30 02:37:52;;;;;;;3.07;1.90;;;;;;;4.98;nan;101700.00;4956001;28;20047;-79
2022/04/30 02:40:21;;;;;;;3.50;2.10;;;;;;;4.93;nan;101697.28;4935176;28;20062;-79
2022/04/30 02:42:51;;;;;;;3.90;2.07;;;;;;;4.93;nan;101691.16;4938762;28;20047;-80
2022/04/30 02:45:18;;;;;;;2.67;1.80;;;;;;;4.93;nan;101686.78;4928711;29;20043;-84
2022/04/30 02:47:53;;;;;;;4.73;2.50;;;;;;;5.13;nan;101681.94;4937482;29;20039;-80
2022/04/30 02:50:23;;;;;;;6.43;3.07;;;;;;;4.99;nan;101694.78;4921939;29;20031;-80
2022/04/30 02:52:52;;;;;;;3.57;2.17;;;;;;;4.83;nan;101682.25;4936568;29;20544;-79
2022/04/30 02:55:20;;;;;;;4.23;1.87;;;;;;;4.76;nan;101683.84;4975669;28;20046;-79
2022/04/30 03:00:39;;;;;;;5.30;2.40;;;;;;;4.97;nan;101680.78;4964211;28;20596;-78
2022/04/30 03:03:07;;;;;;;4.57;2.17;;;;;;;4.95;nan;101677.22;4948948;28;20041;-81
2022/04/30 03:05:36;;;;;;;5.17;2.23;;;;;;;4.92;nan;101669.31;4953461;28;20050;-80
2022/04/30 03:08:09;;;;;;;3.17;2.00;;;;;;;4.81;nan;101670.88;4945632;28;20045;-80
2022/04/30 03:10:36;;;;;;;5.00;2.47;;;;;;;4.75;nan;101670.75;4950662;28;20045;-83
2022/04/30 03:13:03;;;;;;;3.50;2.13;;;;;;;4.68;nan;101663.63;4966583;28;20061;-79
2022/04/30 03:15:30;;;;;;;4.70;2.27;;;;;;;4.70;nan;101656.66;4945717;28;20050;-80
2022/04/30 03:21:42;;;;;;;3.27;2.13;;;;;;;4.74;nan;101645.41;4929806;29;20429;-81
2022/04/30 03:23:47;;;;;;;4.80;2.60;;;;;;;4.66;nan;101660.09;4963094;28;20122;-80
2022/04/30 03:26:15;;;;;;;4.47;2.30;;;;;;;4.59;nan;101660.81;4921387;29;20039;-83
2022/04/30 03:28:43;;;;;;;3.60;2.33;;;;;;;4.49;nan;101649.28;4931972;28;20043;-83
2022/04/30 03:31:10;;;;;;;4.47;1.90;;;;;;;4.52;nan;101655.44;4948965;28;20047;-82
2022/04/30 03:33:38;;;;;;;4.23;2.20;;;;;;;4.50;nan;101648.44;4922861;29;20058;-80
2022/04/30 03:36:05;;;;;;;2.77;2.13;;;;;;;4.45;nan;101656.19;4937695;28;20054;-79
2022/04/30 03:38:32;;;;;;;2.70;1.90;;;;;;;4.41;nan;101651.75;4955726;28;20045;-80
2022/04/30 03:40:59;;;;;;;3.03;2.20;;;;;;;4.41;nan;101646.50;4968296;28;20372;-82
2022/04/30 03:43:26;;;;;;;3.87;1.90;;;;;;;4.51;nan;101652.81;4934076;28;20558;-84
2022/04/30 03:45:53;;;;;;;3.37;2.57;;;;;;;4.53;nan;101649.38;4970135;28;20035;-81
2022/04/30 03:48:20;;;;;;;5.07;2.20;;;;;;;4.45;nan;101648.31;4937106;28;20761;-82
2022/04/30 03:50:47;;;;;;;4.47;2.07;;;;;;;4.43;nan;101649.16;4938729;29;20043;-80
2022/04/30 03:53:14;;;;;;;5.33;2.70;;;;;;;4.33;nan;101655.94;4970533;28;20641;-81
2022/04/30 03:55:41;;;;;;;2.77;1.90;;;;;;;4.32;nan;101648.94;4957771;28;20039;-81
2022/04/30 03:58:08;;;;;;;4.50;2.47;;;;;;;4.32;nan;101648.94;4950551;28;20043;-81
2022/04/30 04:00:35;;;;;;;3.27;2.33;;;;;;;4.42;nan;101650.91;4928389;29;20054;-82
2022/04/30 04:03:02;;;;;;;5.03;2.53;;;;;;;4.38;nan;101638.63;4956622;28;20123;-82
2022/04/30 04:05:31;;;;;;;4.73;2.50;;;;;;;4.43;nan;101650.03;4975216;28;20035;-81
2022/04/30 04:07:58;;;;;;;3.53;1.70;;;;;;;4.43;nan;101644.81;4939748;28;20042;-80
2022/04/30 04:10:25;;;;;;;4.10;2.20;;;;;;;4.41;nan;101649.13;4964258;28;20395;-80
2022/04/30 04:17:37;;;;;;;3.63;2.37;;;;;;;4.38;nan;101646.47;4957922;28;20381;-81
2022/04/30 04:18:25;;;;;;;3.77;2.30;;;;;;;4.36;nan;101650.75;4948498;28;20043;-80
2022/04/30 04:20:51;;;;;;;3.73;2.27;;;;;;;4.35;nan;101654.22;4980610;28;20395;-81
2022/04/30 04:23:18;;;;;;;4.37;2.43;;;;;;;4.44;nan;101656.16;4932536;28;20045;-82
2022/04/30 04:26:00;;;;;;;6.77;2.87;;;;;;;4.44;nan;101648.31;4948703;28;20048;-81
2022/04/30 04:28:28;;;;;;;6.33;2.47;;;;;;;4.45;nan;101656.19;4945927;28;20050;-82
2022/04/30 04:30:57;;;;;;;6.10;2.10;;;;;;;4.53;nan;101651.97;4938775;28;20065;-83
2022/04/30 04:33:24;;;;;;;5.27;2.40;;;;;;;4.56;nan;101645.06;4927615;28;20049;-83
2022/04/30 04:35:51;;;;;;;3.00;2.20;;;;;;;4.58;nan;101646.84;4921937;28;20043;-83
2022/04/30 04:38:18;;;;;;;3.57;2.40;;;;;;;4.66;nan;101660.09;4928739;28;20116;-82
2022/04/30 04:40:44;;;;;;;3.60;2.03;;;;;;;4.66;nan;101654.84;4950733;28;20053;-82
2022/04/30 04:43:11;;;;;;;3.23;2.00;;;;;;;4.71;nan;101653.22;4966037;28;20038;-82
2022/04/30 04:45:39;;;;;;;5.67;2.40;;;;;;;4.79;nan;101659.47;4946362;28;20047;-82
2022/04/30 04:48:08;;;;;;;4.10;2.03;;;;;;;4.83;nan;101663.91;4961752;28;20039;-82
2022/04/30 04:50:35;;;;;;;3.67;2.20;;;;;;;4.83;nan;101655.19;4951464;28;20062;-82
2022/04/30 04:53:02;;;;;;;4.00;2.10;;;;;;;4.90;nan;101672.78;4979206;28;20053;-82
2022/04/30 04:55:29;;;;;;;4.70;2.13;;;;;;;5.02;nan;101665.13;4962236;28;20049;-82
2022/04/30 04:57:56;;;;;;;3.47;2.13;;;;;;;5.11;nan;101660.06;4992667;28;20122;-82
2022/04/30 05:00:23;;;;;;;5.47;2.47;;;;;;;5.12;nan;101667.06;4979325;28;20035;-82
2022/04/30 05:02:53;;;;;;;3.87;1.73;;;;;;;5.24;nan;101669.03;4964707;28;20046;-83
2022/04/30 05:05:20;;;;;;;4.63;2.40;;;;;;;5.25;nan;101670.78;4969609;28;20043;-82
2022/04/30 05:07:47;;;;;;;2.90;2.50;;;;;;;5.24;nan;101676.88;4982382;28;20049;-83
2022/04/30 05:10:15;;;;;;;3.73;1.80;;;;;;;5.40;nan;101675.41;4948251;28;20046;-83
2022/04/30 05:12:45;;;;;;;2.10;1.73;;;;;;;5.55;nan;101673.94;4993960;28;20043;-82
2022/04/30 05:15:13;;;;;;;3.53;1.77;;;;;;;5.59;nan;101674.84;4990017;28;20695;-83
2022/04/30 05:17:40;;;;;;;4.17;2.13;;;;;;;5.73;nan;101675.09;4985759;28;20050;-82
2022/04/30 05:20:07;;;;;;;3.47;1.77;;;;;;;5.75;nan;101673.34;4953752;28;20031;-82
2022/04/30 05:22:54;;;;;;;1.90;1.63;;;;;;;5.84;nan;101674.38;4955163;28;20388;-80
2022/04/30 05:25:21;;;;;;;3.17;2.10;;;;;;;6.04;nan;101673.81;4987996;28;20047;-85
2022/04/30 05:27:48;;;;;;;4.47;2.33;;;;;;;6.12;nan;101673.06;4954764;28;20038;-79
2022/04/30 05:30:15;;;;;;;3.20;2.00;;;;;;;6.21;nan;101682.81;4987445;28;20031;-79
2022/04/30 05:32:42;;;;;;;3.57;1.70;;;;;;;6.35;nan;101675.13;4994769;28;20057;-79
2022/04/30 05:35:10;;;;;;;3.50;2.07;;;;;;;6.48;nan;101674.44;4988715;28;20114;-80
2022/04/30 05:37:36;;;;;;;4.63;1.70;;;;;;;6.58;nan;101671.03;4937668;28;20488;-78
2022/04/30 05:40:04;;;;;;;4.77;2.23;;;;;;;6.63;nan;101671.97;4976052;28;20046;-80
2022/04/30 05:42:30;;;;;;;3.93;2.50;;;;;;;6.89;nan;101680.13;4974371;28;20045;-81
2022/04/30 05:44:58;;;;;;;3.97;2.00;;;;;;;6.96;nan;101687.22;4990127;28;20031;-80
2022/04/30 05:47:25;;;;;;;4.63;1.87;;;;;;;7.06;nan;101682.94;4977634;28;20038;-81
2022/04/30 05:49:52;;;;;;;2.53;1.87;;;;;;;7.12;nan;101680.38;4984616;28;20041;-81
2022/04/30 05:52:19;;;;;;;4.33;2.30;;;;;;;7.27;nan;101679.66;4955018;28;20052;-81
2022/04/30 05:54:46;;;;;;;3.83;2.20;;;;;;;7.44;nan;101666.66;4974165;28;20049;-80
2022/04/30 05:57:14;;;;;;;4.33;2.60;;;;;;;7.65;nan;101671.19;4997511;28;20049;-80
2022/04/30 05:59:41;;;;;;;4.67;2.70;;;;;;;7.68;nan;101672.13;4974932;28;20485;-79
2022/04/30 06:02:08;;;;;;;5.13;3.37;;;;;;;7.76;nan;101667.81;4979518;28;20046;-78
2022/04/30 06:04:35;;;;;;;3.13;2.17;;;;;;;7.87;nan;101663.47;4981221;28;20069;-79
2022/04/30 06:07:02;;;;;;;5.03;2.20;;;;;;;7.97;nan;101661.78;4996796;28;20535;-77
2022/04/30 06:09:29;;;;;;;4.83;2.87;;;;;;;8.14;nan;101664.50;4976477;28;20030;-79
2022/04/30 06:11:56;;;;;;;3.90;2.50;;;;;;;8.18;nan;101667.19;4993833;28;20040;-78
2022/04/30 06:14:23;;;;;;;4.53;2.97;;;;;;;8.27;nan;101678.63;4969776;28;20034;-78
2022/04/30 06:16:50;;;;;;;4.40;2.50;;;;;;;8.44;nan;101682.28;4965006;28;20410;-78
2022/04/30 06:19:17;;;;;;;4.60;3.20;;;;;;;8.56;nan;101687.56;4959296;28;20036;-79
2022/04/30 06:21:45;;;;;;;3.27;2.60;;;;;;;8.62;nan;101684.97;4969192;28;20035;-78
2022/04/30 06:24:12;;;;;;;4.27;2.60;;;;;;;8.58;nan;101682.34;4968561;28;20043;-78
2022/04/30 06:26:39;;;;;;;3.17;2.50;;;;;;;8.63;nan;101681.47;4974950;28;20051;-78
2022/04/30 06:29:07;;;;;;;4.03;2.57;;;;;;;8.76;nan;101676.25;4975747;28;20042;-78
2022/04/30 06:31:34;;;;;;;5.33;2.70;;;;;;;9.00;nan;101682.47;4963166;28;20103;-78
2022/04/30 06:34:01;;;;;;;3.43;2.70;;;;;;;9.01;nan;101683.34;4956512;28;20053;-79
2022/04/30 06:36:28;;;;;;;5.93;2.73;;;;;;;9.20;nan;101671.06;4960378;28;20046;-79
2022/04/30 06:38:55;;;;;;;3.50;2.97;;;;;;;9.06;nan;101676.31;4976031;28;20039;-78
2022/04/30 06:41:22;;;;;;;5.37;2.70;;;;;;;9.13;nan;101677.22;4976850;28;20046;-78
2022/04/30 06:43:51;;;;;;;4.80;3.37;;;;;;;9.26;nan;101674.59;4982990;28;20563;-78
2022/04/30 06:46:18;;;;;;;5.03;3.00;;;;;;;9.53;nan;101675.50;4964849;28;20085;-77
2022/04/30 06:48:45;;;;;;;3.77;2.60;;;;;;;9.67;nan;101684.28;4999006;28;20049;-78
2022/04/30 06:51:12;;;;;;;4.43;2.60;;;;;;;9.86;nan;101677.25;4974502;28;20063;-79
2022/04/30 06:59:11;;;;;;;5.90;3.20;;;;;;;10.31;nan;101685.97;4981253;28;20045;-79
2022/04/30 07:01:49;;;;;;;4.88;2.78;;;;;;;10.41;nan;101688.56;4971765;28;20039;-78
2022/04/30 07:04:17;;;;;;;8.68;4.20;;;;;;;10.66;nan;101684.06;4954480;28;20045;-78
2022/04/30 07:06:47;;;;;;;6.90;3.00;;;;;;;10.65;nan;101682.31;4982136;28;20030;-78
2022/04/30 07:09:14;;;;;;;4.53;2.75;;;;;;;10.63;nan;101688.50;4987897;28;20035;-78
2022/04/30 07:11:42;;;;;;;4.18;3.10;;;;;;;10.75;nan;101688.44;4987038;28;20035;-78
2022/04/30 07:14:09;;;;;;;4.30;2.88;;;;;;;10.54;nan;101684.13;4956292;28;20035;-78
2022/04/30 07:16:36;;;;;;;3.60;2.58;;;;;;;10.70;nan;101690.22;4971819;28;20054;-78
2022/04/30 07:19:03;;;;;;;5.45;3.00;;;;;;;10.92;nan;101693.63;4987442;28;20038;-78
2022/04/30 07:21:33;;;;;;;5.57;3.20;;;;;;;11.21;nan;101683.78;4962422;28;20031;-77
2022/04/30 07:24:00;;;;;;;3.90;2.88;;;;;;;11.25;nan;101687.25;4937385;28;20046;-78
2022/04/30 07:26:28;;;;;;;5.60;2.97;;;;;;;11.17;nan;101687.31;4986708;28;20035;-77
2022/04/30 07:28:55;;;;;;;3.90;2.60;;;;;;;11.11;nan;101686.50;4954264;28;20406;-78
2022/04/30 07:31:22;;;;;;;5.45;3.80;;;;;;;11.14;nan;101684.69;4986986;28;20030;-78
2022/04/30 07:33:51;;;;;;;5.05;3.85;;;;;;;11.32;nan;101685.47;4965233;28;20043;-79
2022/04/30 07:36:18;;;;;;;4.75;3.28;;;;;;;11.42;nan;101688.00;4981509;28;20691;-78
2022/04/30 07:38:46;;;;;;;4.13;2.90;;;;;;;11.48;nan;101695.03;4985687;28;20423;-78
2022/04/30 07:41:13;;;;;;;5.00;2.92;;;;;;;11.33;nan;101684.56;4993540;28;20057;-78
2022/04/30 07:43:40;;;;;;;4.68;3.47;;;;;;;11.48;nan;101687.09;4986387;28;20038;-77
2022/04/30 07:46:07;;;;;;;4.57;3.40;;;;;;;11.61;nan;101687.91;4959271;28;20121;-77
2022/04/30 07:48:38;;;;;;;6.75;3.30;;;;;;;11.82;nan;101685.94;4972817;28;20061;-78
2022/04/30 07:51:13;;;;;;;5.90;3.42;;;;;;;12.00;nan;101690.19;4965690;28;20034;-76
2022/04/30 07:53:41;;;;;;;5.15;3.17;;;;;;;12.05;nan;101684.88;4956720;28;20046;-78
2022/04/30 07:56:09;;;;;;;5.88;3.25;;;;;;;12.20;nan;101687.34;4946573;28;20038;-78
2022/04/30 07:58:36;;;;;;;4.63;3.10;;;;;;;12.61;nan;101683.31;4993198;28;20039;-78
2022/04/30 08:01:03;;;;;;;6.32;3.67;;;;;;;13.20;nan;101689.63;4995771;28;20122;-77
2022/04/30 08:03:32;;;;;;;4.55;3.35;;;;;;;13.82;nan;101679.78;4970901;28;20043;-78
2022/04/30 08:05:59;;;;;;;5.20;3.10;;;;;;;14.14;nan;101686.28;4952794;28;20038;-79
2022/04/30 08:08:26;;;;;;;5.32;3.47;;;;;;;13.96;nan;101677.75;5018045;23;20138;-91
2022/04/30 08:10:54;;;;;;;7.32;3.78;;;;;;;14.14;nan;101680.97;4948796;28;20103;-93
2022/04/30 08:21:48;;;;;;;5.60;2.80;;;;;;;14.05;nan;101677.59;5011043;23;20085;-81
2022/04/30 08:24:35;;;;;;;4.88;3.20;;;;;;;14.05;nan;101679.38;4976782;28;20042;-82
2022/04/30 08:27:03;;;;;;;9.23;4.05;;;;;;;14.03;nan;101673.19;4979045;28;20064;-86
2022/04/30 08:29:30;;;;;;;5.45;3.33;;;;;;;14.04;nan;101675.84;4986835;28;20040;-82
2022/04/30 08:31:57;;;;;;;4.38;3.10;;;;;;;14.29;nan;101668.28;4973267;28;20034;-83
2022/04/30 08:34:24;;;;;;;7.63;3.70;;;;;;;14.30;nan;101674.47;4960319;28;20038;-82
2022/04/30 08:36:51;;;;;;;12.95;4.53;;;;;;;14.29;nan;101667.38;4977883;28;20052;-82
2022/04/30 08:39:18;;;;;;;8.65;3.28;;;;;;;14.56;nan;101681.94;4975602;28;20495;-83
2022/04/30 08:41:45;;;;;;;5.70;4.03;;;;;;;14.76;nan;101679.72;4978737;28;20034;-86
2022/04/30 08:44:16;;;;;;;6.43;3.25;;;;;;;14.92;nan;101666.97;4960322;28;20047;-86
2022/04/30 08:46:44;;;;;;;6.22;3.85;;;;;;;14.71;nan;101672.75;4966016;28;20037;-85
2022/04/30 08:49:14;;;;;;;4.97;3.53;;;;;;;14.62;nan;101674.69;4982040;28;20040;-86
2022/04/30 08:51:41;;;;;;;5.57;3.45;;;;;;;14.68;nan;101672.81;4982479;28;20036;-85
2022/04/30 08:54:08;;;;;;;5.32;3.58;;;;;;;14.76;nan;101673.53;4977504;28;20057;-87
2022/04/30 08:56:38;;;;;;;8.57;4.05;;;;;;;14.76;nan;101670.88;4954846;28;20042;-86
2022/04/30 08:59:05;;;;;;;5.85;3.45;;;;;;;14.67;nan;101671.94;4980476;28;20042;-86
2022/04/30 09:01:46;;;;;;;4.70;3.00;;;;;;;14.88;nan;101676.81;4988912;28;20042;-86
2022/04/30 09:04:13;;;;;;;5.88;3.45;;;;;;;14.86;nan;101670.63;4977647;28;20521;-87
2022/04/30 09:06:47;;;;;;;4.70;3.30;;;;;;;14.52;nan;101667.81;4969927;28;20042;-85
2022/04/30 09:09:32;;;;;;;;;;;;;;;14.58;nan;101669.47;4957829;28;20042;-85
2022/04/30 09:12:10;;;;;;;9.48;3.67;;;;;;;14.86;nan;101675.94;4972453;28;19987;-86
2022/04/30 09:14:40;;;;;;;4.00;3.15;;;;;;;15.34;nan;101677.53;4956830;28;20076;-86
2022/04/30 09:17:09;;;;;;;8.23;3.58;;;;;;;15.26;nan;101674.19;4960721;28;20049;-86
2022/04/30 09:19:45;;;;;;;9.57;3.80;;;;;;;15.61;nan;101671.56;4960515;28;20049;-86
2022/04/30 09:22:14;;;;;;;4.50;3.13;;;;;;;16.11;nan;101672.03;5008712;28;20037;-85
2022/04/30 09:24:46;;;;;;;6.10;4.15;;;;;;;16.65;nan;101671.38;4956334;28;20042;-87
2022/04/30 09:27:33;;;;;;;4.45;3.35;;;;;;;16.88;nan;101668.91;4982527;28;20569;-86
2022/04/30 09:30:00;;;;;;;6.07;3.53;;;;;;;16.72;nan;101670.28;4984617;28;20052;-84
2022/04/30 09:32:28;;;;;;;3.85;3.40;;;;;;;16.37;nan;101663.28;5000748;28;20060;-85
2022/04/30 09:37:46;;;;;;;5.07;3.38;;;;;;;16.42;nan;101660.50;4997304;28;20510;-85
2022/04/30 09:40:15;;;;;;;10.07;3.45;;;;;;;16.18;nan;101654.06;4975721;28;20048;-85
2022/04/30 09:42:48;;;;;;;4.70;3.65;;;;;;;16.08;nan;101652.59;4988886;28;20038;-86
2022/04/30 09:45:29;;;;;;;6.30;3.60;;;;;;;16.34;nan;101663.38;4968576;28;20053;-85
2022/04/30 09:47:58;;;;;;;5.38;4.05;;;;;;;16.39;nan;101660.56;4962258;28;20048;-85
2022/04/30 09:56:08;;;;;;;5.07;3.15;;;;;;;16.70;nan;101650.78;4997159;28;20042;-86
2022/04/30 09:58:39;;;;;;;5.03;3.00;;;;;;;16.73;nan;101657.81;4961217;28;20034;-85
2022/04/30 10:01:11;;;;;;;65.22;10.57;;;;;;;16.61;nan;101659.91;4960192;28;20034;-85
2022/04/30 10:03:40;;;;;;;6.20;3.17;;;;;;;15.96;nan;101656.44;4960569;28;20034;-85
2022/04/30 10:06:07;;;;;;;5.53;3.35;;;;;;;15.91;nan;101647.72;4976799;28;20654;-86
2022/04/30 10:08:39;;;;;;;8.00;3.42;;;;;;;15.98;nan;101651.97;4973813;28;20042;-86
2022/04/30 10:11:26;;;;;;;4.30;3.15;;;;;;;16.02;nan;101650.94;4963737;28;20048;-85
2022/04/30 10:14:02;;;;;;;6.25;3.42;;;;;;;16.35;nan;101642.94;4968958;28;20037;-85
2022/04/30 10:16:29;;;;;;;7.43;3.55;;;;;;;16.25;nan;101651.19;5016610;28;20056;-85
2022/04/30 10:19:15;;;;;;;4.32;2.90;;;;;;;16.42;nan;101645.38;4971055;28;20044;-86
2022/04/30 10:21:42;;;;;;;5.05;3.20;;;;;;;16.43;nan;101636.44;4977034;28;20406;-85
2022/04/30 10:24:12;;;;;;;8.57;3.28;;;;;;;16.45;nan;101636.41;4961875;28;20643;-84
2022/04/30 10:26:58;;;;;;;6.25;3.78;;;;;;;16.57;nan;101636.06;4969745;28;20046;-84
2022/04/30 10:29:25;;;;;;;5.43;3.30;;;;;;;16.53;nan;101629.03;4977411;28;20052;-86
2022/04/30 10:31:52;;;;;;;4.68;3.67;;;;;;;16.69;nan;101621.50;4982899;28;20042;-84
2022/04/30 10:34:31;;;;;;;5.32;3.28;;;;;;;16.52;nan;101624.63;4963328;28;20048;-85
2022/04/30 10:37:02;;;;;;;6.63;3.95;;;;;;;16.41;nan;101624.09;4994970;28;20050;-85
2022/04/30 10:39:29;;;;;;;5.47;3.30;;;;;;;16.49;nan;101622.94;4979561;28;20410;-85
2022/04/30 10:41:57;;;;;;;4.95;3.22;;;;;;;16.44;nan;101622.19;4982093;28;20030;-85
2022/04/30 10:44:32;;;;;;;6.53;3.58;;;;;;;16.80;nan;101622.91;5005861;28;20145;-85
2022/04/30 10:47:10;;;;;;;5.20;3.28;;;;;;;16.69;nan;101619.69;4974171;28;20044;-85
2022/04/30 10:49:37;;;;;;;4.90;3.30;;;;;;;16.79;nan;101621.16;4978271;28;20048;-84
2022/04/30 10:52:04;;;;;;;8.23;3.75;;;;;;;17.05;nan;101616.78;4984890;28;20049;-85
2022/04/30 10:54:33;;;;;;;4.32;3.67;;;;;;;17.05;nan;101608.78;4996151;28;20045;-85
2022/04/30 10:57:03;;;;;;;5.65;3.83;;;;;;;16.71;nan;101614.31;4973465;28;20612;-85
2022/04/30 10:59:30;;;;;;;5.80;3.35;;;;;;;17.20;nan;101602.94;4975143;28;20038;-85
2022/04/30 11:01:59;;;;;;;6.05;3.85;;;;;;;17.30;nan;101615.06;4977462;28;20088;-85
2022/04/30 11:04:26;;;;;;;8.73;4.28;;;;;;;17.55;nan;101599.09;4959181;28;20038;-85
2022/04/30 11:06:53;;;;;;;5.65;3.72;;;;;;;17.53;nan;101600.94;4992371;28;20185;-85
2022/04/30 11:09:21;;;;;;;7.63;3.90;;;;;;;17.52;nan;101593.84;4990904;28;20030;-87
2022/04/30 11:11:49;;;;;;;6.07;4.25;;;;;;;18.07;nan;101596.38;4960826;28;20037;-84
2022/04/30 11:14:17;;;;;;;4.53;3.90;;;;;;;18.44;nan;101591.41;4956587;28;20050;-85
2022/04/30 11:16:45;;;;;;;5.00;3.47;;;;;;;18.80;nan;101590.94;4963249;28;20048;-85
2022/04/30 11:19:17;;;;;;;9.60;3.92;;;;;;;18.94;nan;101590.41;4980850;28;20034;-86
2022/04/30 11:21:51;;;;;;;7.63;4.32;;;;;;;19.20;nan;101583.97;4986015;28;20041;-85
2022/04/30 11:24:22;;;;;;;7.22;4.72;;;;;;;18.70;nan;101589.56;4972452;28;20068;-86
2022/04/30 11:26:53;;;;;;;6.43;4.55;;;;;;;18.65;nan;101583.47;5010594;28;20042;-86
2022/04/30 11:29:20;;;;;;;8.77;4.47;;;;;;;17.84;nan;101583.88;4963276;28;20038;-87
2022/04/30 11:31:51;;;;;;;5.35;4.22;;;;;;;17.77;nan;101577.00;4956991;28;20042;-84
2022/04/30 11:34:19;;;;;;;6.68;4.22;;;;;;;17.73;nan;101587.78;4960463;28;20398;-85
2022/04/30 11:36:48;;;;;;;7.15;4.65;;;;;;;17.91;nan;101580.94;4957067;28;20414;-84
2022/04/30 11:39:16;;;;;;;8.70;5.38;;;;;;;17.58;nan;101584.78;4992993;28;20495;-85
2022/04/30 11:41:45;;;;;;;6.43;4.25;;;;;;;17.42;nan;101581.75;5004118;28;20037;-85
2022/04/30 11:44:13;;;;;;;8.00;4.30;;;;;;;17.70;nan;101576.34;4972327;28;20034;-86
2022/04/30 11:46:41;;;;;;;6.82;4.80;;;;;;;17.47;nan;101577.09;4970372;28;20046;-85
2022/04/30 11:49:09;;;;;;;5.38;3.80;;;;;;;17.53;nan;101579.56;4976630;28;20056;-85
2022/04/30 11:51:57;;;;;;;7.28;4.75;;;;;;;17.22;nan;101582.41;4982832;28;20040;-84
2022/04/30 11:54:26;;;;;;;7.82;4.95;;;;;;;17.15;nan;101583.53;4976276;28;20438;-85
2022/04/30 11:56:53;;;;;;;6.53;4.57;;;;;;;17.23;nan;101581.47;4997099;28;20034;-85
2022/04/30 11:59:34;;;;;;;5.95;4.10;;;;;;;17.59;nan;101568.69;4992775;28;20675;-86
2022/04/30 12:02:08;;;;;;;6.50;4.05;;;;;;;17.95;nan;101571.84;4978254;28;20042;-85
2022/04/30 12:04:37;;;;;;;6.03;4.20;;;;;;;18.17;nan;101571.06;4965422;28;20049;-84
2022/04/30 12:07:06;;;;;;;7.18;4.85;;;;;;;18.15;nan;101564.88;4974318;28;20053;-84
2022/04/30 12:09:37;;;;;;;7.07;4.25;;;;;;;18.45;nan;101569.06;4983826;28;20054;-85
2022/04/30 12:12:21;;;;;;;7.55;4.80;;;;;;;18.55;nan;101565.09;4956732;28;20038;-85
2022/04/30 12:14:55;;;;;;;6.43;4.18;;;;;;;18.63;nan;101562.13;4973505;28;20044;-83
2022/04/30 12:17:32;;;;;;;7.07;4.75;;;;;;;18.90;nan;101562.84;4982919;28;20034;-86
2022/04/30 12:26:04;;;;;;;6.40;5.20;;;;;;;18.80;nan;101556.13;4983348;28;20045;-85
2022/04/30 12:28:47;;;;;;;9.73;4.25;;;;;;;19.11;nan;101548.59;4964855;28;20064;-84
2022/04/30 12:31:14;;;;;;;7.45;5.07;;;;;;;18.82;nan;101555.13;4962837;28;20042;-85
2022/04/30 12:33:48;;;;;;;7.90;5.38;;;;;;;19.29;nan;101546.06;4976732;28;20068;-85
2022/04/30 12:36:16;;;;;;;8.70;5.10;;;;;;;18.37;nan;101547.09;4966616;28;20038;-86
2022/04/30 12:38:53;;;;;;;6.68;4.80;;;;;;;18.99;nan;101541.06;4955519;28;20045;-85
2022/04/30 12:41:22;;;;;;;6.30;4.22;;;;;;;19.34;nan;101542.28;4987492;28;20044;-85
2022/04/30 12:43:50;;;;;;;7.57;4.43;;;;;;;19.57;nan;101538.59;4977845;28;20038;-85